createdAt,value
2019-02-07T00:00:05.261Z,58.50
2019-02-07T00:02:35.691Z,57.60
2019-02-07T00:05:03.904Z,55.40
2019-02-07T00:07:32.279Z,57.30
2019-02-07T00:10:00.250Z,57.30
2019-02-07T00:12:28.441Z,59.10
2019-02-07T00:14:56.767Z,58.00
2019-02-07T00:17:24.955Z,57.20
2019-02-07T00:19:53.561Z,57.70
2019-02-07T00:22:21.639Z,58.40
2019-02-07T00:24:49.603Z,57.40
2019-02-07T00:27:18.430Z,57.70
2019-02-07T00:29:46.515Z,58.20
2019-02-07T00:32:14.684Z,58.20
2019-02-07T00:34:43.029Z,59.50
2019-02-07T00:37:11.026Z,60.30
2019-02-07T00:39:39.254Z,58.70
2019-02-07T00:42:07.509Z,59.70
2019-02-07T00:44:35.656Z,59.60
2019-02-07T00:47:03.661Z,61.90
2019-02-07T00:49:31.608Z,60.90
2019-02-07T00:51:59.901Z,60.00
2019-02-07T00:54:27.929Z,59.80
2019-02-07T00:56:56.274Z,60.20
2019-02-07T00:59:24.253Z,60.10
2019-02-07T01:01:52.279Z,60.70
2019-02-07T01:04:20.764Z,62.20
2019-02-07T01:06:49.157Z,62.90
2019-02-07T01:09:17.428Z,60.60
2019-02-07T01:11:45.606Z,62.30
2019-02-07T01:14:13.590Z,62.30
2019-02-07T01:16:42.032Z,61.40
2019-02-07T01:19:11.615Z,62.50
2019-02-07T01:21:40.422Z,61.80
2019-02-07T01:24:08.557Z,61.60
2019-02-07T01:26:36.731Z,62.50
2019-02-07T01:29:04.696Z,59.10
2019-02-07T01:31:33.104Z,59.30
2019-02-07T01:34:02.286Z,60.00
2019-02-07T01:36:30.359Z,60.10
2019-02-07T01:38:58.787Z,62.00
2019-02-07T01:41:26.758Z,62.10
2019-02-07T01:43:54.793Z,64.40
2019-02-07T01:46:23.030Z,64.50
2019-02-07T01:48:51.003Z,62.20
2019-02-07T01:51:19.249Z,61.40
2019-02-07T01:53:47.265Z,59.40
2019-02-07T01:56:15.527Z,61.60
2019-02-07T01:58:43.720Z,61.50
2019-02-07T02:01:11.833Z,62.30
2019-02-07T02:03:39.831Z,62.00
2019-02-07T02:06:07.997Z,62.50
2019-02-07T02:08:36.118Z,64.10
2019-02-07T02:11:04.125Z,62.30
2019-02-07T02:13:32.319Z,62.00
2019-02-07T02:16:00.342Z,65.10
2019-02-07T02:18:28.779Z,61.40
2019-02-07T02:20:56.974Z,62.00
2019-02-07T02:23:24.993Z,63.50
2019-02-07T02:25:53.125Z,64.20
2019-02-07T02:28:21.188Z,62.40
2019-02-07T02:30:49.220Z,62.50
2019-02-07T02:33:17.510Z,61.30
2019-02-07T02:35:45.499Z,61.20
2019-02-07T02:38:13.730Z,63.60
2019-02-07T02:40:41.760Z,64.50
2019-02-07T02:43:10.255Z,64.60
2019-02-07T02:45:38.688Z,62.50
2019-02-07T02:48:06.953Z,62.70
2019-02-07T02:50:35.218Z,66.00
2019-02-07T02:53:03.204Z,62.10
2019-02-07T02:55:36.532Z,61.40
2019-02-07T02:58:04.994Z,62.50
2019-02-07T03:00:52.591Z,64.10
2019-02-07T03:03:43.340Z,63.80
2019-02-07T03:06:22.753Z,61.10
2019-02-07T03:09:28.219Z,62.30
2019-02-07T03:12:03.920Z,63.50
2019-02-07T03:14:57.407Z,62.10
2019-02-07T03:17:47.750Z,61.50
2019-02-07T03:20:35.079Z,64.10
2019-02-07T03:23:24.193Z,65.20
2019-02-07T03:26:10.578Z,66.30
2019-02-07T03:29:13.448Z,63.10
2019-02-07T03:32:00.086Z,62.10
2019-02-07T03:34:45.191Z,62.10
2019-02-07T03:37:36.863Z,63.10
2019-02-07T03:40:25.847Z,66.30
2019-02-07T03:43:13.438Z,64.40
2019-02-07T03:46:04.124Z,64.10
2019-02-07T03:48:42.860Z,62.90
2019-02-07T03:51:25.177Z,64.90
2019-02-07T03:54:03.796Z,66.50
2019-02-07T03:56:50.135Z,63.20
2019-02-07T03:59:40.758Z,64.50
2019-02-07T04:02:21.715Z,63.30
2019-02-07T04:05:15.059Z,61.30
2019-02-07T04:08:08.680Z,61.90
2019-02-07T04:10:46.255Z,65.00
2019-02-07T04:13:34.013Z,64.10
2019-02-07T04:16:15.460Z,61.90
2019-02-07T04:19:01.470Z,63.90
2019-02-07T04:21:47.450Z,61.20
2019-02-07T04:24:35.034Z,62.10
2019-02-07T04:27:34.535Z,64.50
2019-02-07T04:30:18.946Z,61.80
2019-02-07T04:33:16.593Z,62.40
2019-02-07T04:36:00.748Z,63.50
2019-02-07T04:38:48.364Z,61.40
2019-02-07T04:41:36.104Z,62.20
2019-02-07T04:44:29.840Z,62.10
2019-02-07T04:47:26.190Z,62.10
2019-02-07T04:50:12.373Z,61.00
2019-02-07T04:53:02.968Z,61.70
2019-02-07T04:55:53.567Z,64.70
2019-02-07T05:01:20.477Z,61.70
2019-02-07T05:04:10.859Z,61.30
2019-02-07T05:07:01.578Z,63.50
2019-02-07T05:09:38.984Z,62.80
2019-02-07T05:12:29.324Z,60.80
2019-02-07T05:15:29.228Z,59.00
2019-02-07T05:18:16.862Z,59.30
2019-02-07T05:21:07.841Z,60.30
2019-02-07T05:23:49.607Z,59.70
2019-02-07T05:26:43.483Z,60.80
2019-02-07T05:29:33.831Z,58.80
2019-02-07T05:32:36.150Z,58.90
2019-02-07T05:35:19.490Z,62.20
2019-02-07T05:38:05.939Z,59.10
2019-02-07T05:40:52.249Z,59.80
2019-02-07T05:43:38.941Z,59.40
2019-02-07T05:46:20.952Z,59.40
2019-02-07T05:49:12.617Z,58.80
2019-02-07T05:51:51.966Z,61.20
2019-02-07T05:54:54.502Z,60.00
2019-02-07T05:57:39.982Z,58.90
2019-02-07T06:00:21.372Z,58.40
2019-02-07T06:03:14.738Z,58.90
2019-02-07T06:06:01.030Z,58.80
2019-02-07T06:08:47.211Z,58.40
2019-02-07T06:11:39.103Z,59.50
2019-02-07T06:14:41.516Z,58.90
2019-02-07T06:17:34.978Z,58.70
2019-02-07T06:20:28.964Z,60.20
2019-02-07T06:23:16.026Z,58.80
2019-02-07T06:26:02.017Z,59.20
2019-02-07T06:31:48.676Z,58.00
2019-02-07T06:34:45.225Z,59.10
2019-02-07T06:37:35.572Z,59.10
2019-02-07T06:40:23.174Z,58.40
2019-02-07T06:43:13.626Z,59.50
2019-02-07T06:46:00.905Z,59.60
2019-02-07T06:48:40.890Z,57.50
2019-02-07T06:51:46.765Z,58.10
2019-02-07T06:54:46.703Z,60.80
2019-02-07T06:57:37.587Z,58.00
2019-02-07T07:00:24.674Z,60.00
2019-02-07T07:03:12.403Z,57.50
2019-02-07T07:05:58.838Z,56.60
2019-02-07T07:08:47.417Z,56.90
2019-02-07T07:11:26.330Z,57.50
2019-02-07T07:14:31.855Z,58.10
2019-02-07T07:17:25.587Z,58.20
2019-02-07T07:20:08.505Z,58.00
2019-02-07T07:23:02.263Z,57.30
2019-02-07T07:26:01.935Z,57.10
2019-02-07T07:28:58.777Z,56.60
2019-02-07T07:31:46.883Z,57.10
2019-02-07T07:34:27.514Z,57.50
2019-02-07T07:37:15.452Z,57.30
2019-02-07T07:40:09.021Z,57.00
2019-02-07T07:43:05.934Z,57.50
2019-02-07T07:45:59.254Z,58.20
2019-02-07T07:48:45.156Z,57.30
2019-02-07T07:51:39.055Z,57.60
2019-02-07T07:54:20.536Z,56.50
2019-02-07T07:57:20.119Z,57.50
2019-02-07T08:00:10.600Z,55.80
2019-02-07T08:03:01.190Z,55.90
2019-02-07T08:05:54.085Z,54.20
2019-02-07T08:08:41.770Z,52.40
2019-02-07T08:11:19.260Z,52.40
2019-02-07T08:14:09.846Z,50.60
2019-02-07T08:16:59.126Z,50.10
2019-02-07T08:19:48.924Z,50.30
2019-02-07T08:22:35.382Z,48.80
2019-02-07T08:25:39.465Z,48.10
2019-02-07T08:28:30.032Z,48.30
2019-02-07T08:31:16.026Z,48.30
2019-02-07T08:34:06.657Z,48.10
2019-02-07T08:36:57.229Z,48.10
2019-02-07T08:39:36.730Z,47.90
2019-02-07T08:42:36.199Z,48.20
2019-02-07T08:45:35.783Z,47.80
2019-02-07T08:48:32.348Z,47.40
2019-02-07T08:51:11.378Z,47.40
2019-02-07T08:54:01.227Z,47.30
2019-02-07T08:56:47.167Z,48.00
2019-02-07T08:59:32.538Z,46.50
2019-02-07T09:02:30.390Z,46.70
2019-02-07T09:05:36.328Z,46.50
2019-02-07T09:08:23.955Z,46.40
2019-02-07T09:11:02.748Z,46.70
2019-02-07T09:13:55.880Z,46.40
2019-02-07T09:16:58.643Z,46.20
2019-02-07T09:19:46.515Z,46.60
2019-02-07T09:22:45.978Z,46.80
2019-02-07T09:25:34.707Z,45.60
2019-02-07T09:28:31.536Z,45.60
2019-02-07T09:31:17.652Z,45.50
2019-02-07T09:33:53.893Z,45.50
2019-02-07T09:36:47.084Z,45.00
2019-02-07T09:39:43.925Z,44.60
2019-02-07T09:42:38.149Z,45.20
2019-02-07T09:45:28.692Z,45.40
2019-02-07T09:48:21.903Z,45.30
2019-02-07T09:51:03.756Z,45.00
2019-02-07T09:53:37.695Z,45.80
2019-02-07T09:56:29.185Z,44.90
2019-02-07T09:59:11.785Z,43.70
2019-02-07T10:01:58.245Z,43.90
2019-02-07T10:04:48.621Z,42.70
2019-02-07T10:07:36.373Z,41.30
2019-02-07T10:10:17.003Z,41.80
2019-02-07T10:13:04.210Z,41.70
2019-02-07T10:15:50.518Z,41.70
2019-02-07T10:18:50.270Z,41.10
2019-02-07T10:21:56.163Z,41.70
2019-02-07T10:24:47.962Z,43.00
2019-02-07T10:27:53.818Z,44.30
2019-02-07T10:30:41.430Z,43.90
2019-02-07T10:33:23.891Z,44.70
2019-02-07T10:36:07.544Z,46.10
2019-02-07T10:38:48.465Z,46.60
2019-02-07T10:41:37.565Z,46.20
2019-02-07T10:44:31.294Z,46.60
2019-02-07T10:47:17.836Z,48.30
2019-02-07T10:50:04.560Z,48.50
2019-02-07T10:52:45.297Z,50.60
2019-02-07T10:55:30.063Z,53.20
2019-02-07T10:58:25.325Z,52.70
2019-02-07T11:01:10.463Z,53.90
2019-02-07T11:03:51.128Z,54.70
2019-02-07T11:06:38.690Z,56.30
2019-02-07T11:09:23.130Z,56.40
2019-02-07T11:12:25.663Z,57.00
2019-02-07T11:15:11.795Z,56.40
2019-02-07T11:18:02.173Z,58.20
2019-02-07T11:20:45.359Z,60.50
2019-02-07T11:23:23.905Z,60.20
2019-02-07T11:26:19.610Z,61.80
2019-02-07T11:29:22.147Z,60.70
2019-02-07T11:32:08.939Z,59.60
2019-02-07T11:35:02.597Z,62.70
2019-02-07T11:38:02.345Z,62.50
2019-02-07T11:41:04.851Z,62.30
2019-02-07T11:43:55.248Z,63.30
2019-02-07T11:46:49.130Z,63.50
2019-02-07T11:49:28.695Z,64.30
2019-02-07T11:52:06.489Z,66.50
2019-02-07T11:54:54.210Z,64.70
2019-02-07T11:57:50.603Z,62.40
2019-02-07T12:00:39.003Z,62.30
2019-02-07T12:03:38.938Z,62.30
2019-02-07T12:06:29.385Z,63.80
2019-02-07T12:09:20.109Z,63.70
2019-02-07T12:12:05.813Z,64.50
2019-02-07T12:14:56.289Z,63.20
2019-02-07T12:17:37.983Z,62.70
2019-02-07T12:20:27.161Z,59.90
2019-02-07T12:23:14.744Z,58.80
2019-02-07T12:26:01.099Z,59.80
2019-02-07T12:28:47.103Z,59.30
2019-02-07T12:31:34.697Z,60.00
2019-02-07T12:34:21.091Z,60.10
2019-02-07T12:36:55.666Z,61.00
2019-02-07T12:39:43.749Z,62.10
2019-02-07T12:42:24.951Z,62.50
2019-02-07T12:45:27.532Z,63.70
2019-02-07T12:48:18.164Z,63.60
2019-02-07T12:50:59.102Z,64.10
2019-02-07T12:53:44.559Z,63.30
2019-02-07T12:56:30.691Z,62.70
2019-02-07T12:59:23.875Z,61.60
2019-02-07T13:02:26.769Z,61.60
2019-02-07T13:05:20.402Z,60.70
2019-02-07T13:08:11.036Z,60.60
2019-02-07T13:11:04.638Z,61.70
2019-02-07T13:13:49.225Z,63.80
2019-02-07T13:16:27.382Z,62.20
2019-02-07T13:19:17.865Z,62.10
2019-02-07T13:21:56.272Z,62.60
2019-02-07T13:24:42.597Z,63.20
2019-02-07T13:27:25.422Z,63.30
2019-02-07T13:30:15.732Z,63.60
2019-02-07T13:32:54.890Z,60.80
2019-02-07T13:36:00.766Z,62.20
2019-02-07T13:38:47.193Z,62.10
2019-02-07T13:41:46.443Z,62.80
2019-02-07T13:44:23.779Z,61.20
2019-02-07T13:47:10.105Z,61.20
2019-02-07T13:49:57.731Z,63.80
2019-02-07T13:52:57.468Z,61.20
2019-02-07T13:55:45.087Z,60.40
2019-02-07T14:01:30.922Z,61.90
2019-02-07T14:04:18.996Z,63.30
2019-02-07T14:07:05.247Z,64.10
2019-02-07T14:09:47.858Z,64.70
2019-02-07T14:12:51.628Z,65.00
2019-02-07T14:15:39.181Z,64.40
2019-02-07T14:18:39.098Z,63.60
2019-02-07T14:21:35.805Z,63.50
2019-02-07T14:24:23.485Z,63.50
2019-02-07T14:27:13.842Z,63.60
2019-02-07T14:29:51.762Z,63.00
2019-02-07T14:32:39.381Z,56.60
2019-02-07T14:35:27.400Z,55.60
2019-02-07T14:38:17.728Z,56.10
2019-02-07T14:41:00.264Z,57.90
2019-02-07T14:43:47.058Z,59.60
2019-02-07T14:46:32.891Z,61.20
2019-02-07T14:49:01.170Z,62.40
2019-02-07T14:51:29.407Z,62.00
2019-02-07T14:53:57.486Z,62.30
2019-02-07T14:56:25.449Z,62.80
2019-02-07T14:58:53.614Z,64.30
2019-02-07T15:01:21.731Z,65.40
2019-02-07T15:03:49.802Z,67.20
2019-02-07T15:06:18.184Z,67.10
2019-02-07T15:08:46.559Z,67.30
2019-02-07T15:11:14.566Z,67.70
2019-02-07T15:13:43.048Z,68.00
2019-02-07T15:16:11.538Z,68.00
2019-02-07T15:18:39.745Z,68.10
2019-02-07T15:21:07.776Z,68.50
2019-02-07T15:23:35.860Z,69.80
2019-02-07T15:26:04.007Z,69.70
2019-02-07T15:28:32.088Z,69.90
2019-02-07T15:31:00.481Z,70.60
2019-02-07T15:33:28.662Z,70.50
2019-02-07T15:35:56.691Z,71.40
2019-02-07T15:38:24.743Z,71.10
2019-02-07T15:40:52.787Z,71.80
2019-02-07T15:43:20.859Z,72.40
2019-02-07T15:45:49.291Z,73.10
2019-02-07T15:48:17.843Z,73.60
2019-02-07T15:50:45.810Z,74.10
2019-02-07T15:53:14.028Z,74.10
2019-02-07T15:55:42.420Z,74.80
2019-02-07T15:58:10.444Z,74.90
2019-02-07T16:01:16.613Z,75.40
2019-02-07T16:03:52.158Z,75.60
2019-02-07T16:06:20.515Z,75.90
2019-02-07T16:08:48.659Z,75.60
2019-02-07T16:11:17.115Z,75.70
2019-02-07T16:13:45.144Z,75.90
2019-02-07T16:16:13.165Z,76.90
2019-02-07T16:18:41.958Z,77.30
2019-02-07T16:21:10.451Z,76.40
2019-02-07T16:23:38.718Z,76.80
2019-02-07T16:26:06.772Z,77.40
2019-02-07T16:28:35.442Z,77.80
2019-02-07T16:31:03.717Z,77.50
2019-02-07T16:33:31.824Z,78.00
2019-02-07T16:35:59.875Z,77.90
2019-02-07T16:38:27.839Z,77.80
2019-02-07T16:40:56.192Z,78.40
2019-02-07T16:43:24.782Z,78.20
2019-02-07T16:45:54.756Z,78.00
2019-02-07T16:48:22.974Z,78.40
2019-02-07T16:50:59.886Z,78.40
2019-02-07T16:53:22.052Z,79.00
2019-02-07T16:55:50.100Z,79.30
2019-02-07T16:58:18.759Z,78.90
2019-02-07T17:00:47.141Z,79.20
2019-02-07T17:03:15.948Z,79.70
2019-02-07T17:05:43.961Z,79.60
2019-02-07T17:08:14.429Z,79.60
2019-02-07T17:10:42.599Z,79.60
2019-02-07T17:13:10.632Z,79.40
2019-02-07T17:15:39.002Z,79.70
2019-02-07T17:18:07.313Z,80.00
2019-02-07T17:20:35.332Z,79.50
2019-02-07T17:23:05.162Z,79.40
2019-02-07T17:25:33.162Z,79.80
2019-02-07T17:28:01.203Z,79.50
2019-02-07T17:30:29.624Z,79.40
2019-02-07T17:32:57.649Z,79.60
2019-02-07T17:35:25.612Z,80.20
2019-02-07T17:37:53.615Z,80.30
2019-02-07T17:40:22.145Z,80.70
2019-02-07T17:42:50.205Z,80.50
2019-02-07T17:45:21.444Z,80.50
2019-02-07T17:47:49.975Z,81.30
2019-02-07T17:50:23.783Z,80.70
2019-02-07T17:52:51.780Z,80.90
2019-02-07T17:55:20.668Z,81.10
2019-02-07T17:57:48.641Z,81.00
2019-02-07T18:00:28.630Z,81.20
2019-02-07T18:02:56.810Z,81.60
2019-02-07T18:05:24.805Z,81.60
2019-02-07T18:07:52.770Z,81.40
2019-02-07T18:10:20.829Z,81.90
2019-02-07T18:12:48.912Z,81.80
2019-02-07T18:15:16.910Z,82.20
2019-02-07T18:17:45.065Z,82.70
2019-02-07T18:20:14.288Z,82.30
2019-02-07T18:25:10.135Z,81.70
2019-02-07T18:27:38.160Z,82.40
2019-02-07T18:32:37.527Z,81.60
2019-02-07T18:35:05.599Z,82.00
2019-02-07T18:37:33.822Z,81.90
2019-02-07T18:40:01.914Z,82.50
2019-02-07T18:45:01.043Z,83.70
2019-02-07T18:47:28.967Z,82.90
2019-02-07T18:52:25.214Z,80.70
2019-02-07T18:54:53.293Z,81.40
2019-02-07T18:57:21.248Z,82.00
2019-02-07T18:59:49.625Z,80.80
2019-02-07T19:02:17.688Z,81.10
2019-02-07T19:04:45.656Z,81.30
2019-02-07T19:07:14.081Z,80.80
2019-02-07T19:09:42.011Z,80.90
2019-02-07T19:12:10.116Z,81.40
2019-02-07T19:14:38.118Z,81.70
2019-02-07T19:17:06.129Z,82.40
2019-02-07T19:19:35.261Z,81.30
2019-02-07T19:22:03.255Z,82.10
2019-02-07T19:24:31.665Z,82.40
2019-02-07T19:26:59.659Z,81.00
2019-02-07T19:29:27.630Z,81.50
2019-02-07T19:31:55.701Z,81.40
2019-02-07T19:34:23.701Z,81.60
2019-02-07T19:36:51.744Z,80.90
2019-02-07T19:39:20.022Z,82.50
2019-02-07T19:41:48.465Z,81.10
2019-02-07T19:44:16.692Z,79.30
2019-02-07T19:46:44.715Z,80.60
2019-02-07T19:49:14.624Z,78.00
2019-02-07T19:51:42.595Z,78.50
2019-02-07T19:54:10.704Z,78.80
2019-02-07T19:56:38.736Z,78.30
2019-02-07T19:59:06.986Z,78.20
2019-02-07T20:01:35.033Z,78.00
2019-02-07T20:04:03.024Z,78.90
2019-02-07T20:06:31.004Z,78.60
2019-02-07T20:08:59.161Z,77.20
2019-02-07T20:11:27.272Z,77.70
2019-02-07T20:13:55.513Z,77.20
2019-02-07T20:16:24.700Z,77.80
2019-02-07T20:18:52.735Z,77.70
2019-02-07T20:21:21.027Z,77.70
2019-02-07T20:23:48.998Z,77.70
2019-02-07T20:26:17.260Z,76.90
2019-02-07T20:28:45.593Z,77.30
2019-02-07T20:31:13.577Z,77.60
2019-02-07T20:33:41.910Z,77.70
2019-02-07T20:36:10.108Z,79.50
2019-02-07T20:38:38.197Z,77.50
2019-02-07T20:41:06.254Z,76.60
2019-02-07T20:43:34.566Z,76.50
2019-02-07T20:46:02.743Z,76.90
2019-02-07T20:48:30.748Z,75.80
2019-02-07T20:50:59.372Z,76.40
2019-02-07T20:53:27.732Z,76.10
2019-02-07T20:55:55.770Z,75.70
2019-02-07T20:58:23.792Z,75.20
2019-02-07T21:00:51.961Z,75.90
2019-02-07T21:03:20.263Z,75.80
2019-02-07T21:05:48.807Z,76.00
2019-02-07T21:08:17.813Z,75.00
2019-02-07T21:10:47.133Z,75.50
2019-02-07T21:13:15.538Z,75.50
2019-02-07T21:15:45.518Z,75.20
2019-02-07T21:18:13.975Z,74.40
2019-02-07T21:20:46.693Z,74.90
2019-02-07T21:23:17.509Z,75.00
2019-02-07T21:25:48.961Z,75.00
2019-02-07T21:28:20.431Z,74.70
2019-02-07T21:30:51.696Z,75.00
2019-02-07T21:33:21.901Z,75.30
2019-02-07T21:35:50.017Z,75.60
2019-02-07T21:38:18.143Z,75.30
2019-02-07T21:40:46.219Z,75.50
2019-02-07T21:43:14.566Z,75.70
2019-02-07T21:45:51.541Z,75.60
2019-02-07T21:48:22.716Z,74.80
2019-02-07T21:50:52.429Z,75.30
2019-02-07T21:53:20.715Z,75.50
2019-02-07T21:55:48.891Z,75.40
2019-02-07T21:58:17.189Z,75.10
2019-02-07T22:00:46.145Z,75.60
2019-02-07T22:03:15.282Z,75.40
2019-02-07T22:05:44.539Z,75.10
2019-02-07T22:08:12.568Z,75.00
2019-02-07T22:10:40.541Z,75.20
2019-02-07T22:13:08.844Z,74.70
2019-02-07T22:15:37.074Z,75.70
2019-02-07T22:18:06.855Z,74.90
2019-02-07T22:20:34.851Z,74.40
2019-02-07T22:23:03.088Z,74.40
2019-02-07T22:25:31.415Z,74.20
2019-02-07T22:27:59.971Z,75.00
2019-02-07T22:30:31.172Z,74.40
2019-02-07T22:32:59.538Z,74.30
2019-02-07T22:35:27.872Z,74.40
2019-02-07T22:37:56.256Z,73.90
2019-02-07T22:40:24.667Z,73.80
2019-02-07T22:42:53.036Z,74.60
2019-02-07T22:45:21.927Z,74.70
2019-02-07T22:47:50.196Z,74.40
2019-02-07T22:50:26.833Z,74.70
2019-02-07T22:52:56.987Z,74.60
2019-02-07T22:55:25.110Z,74.60
2019-02-07T22:57:53.110Z,74.70
2019-02-07T23:01:13.507Z,75.00
2019-02-07T23:03:50.525Z,74.90
2019-02-07T23:06:18.680Z,75.00
2019-02-07T23:08:47.018Z,74.90
2019-02-07T23:11:14.986Z,74.70
2019-02-07T23:13:42.980Z,74.40
2019-02-07T23:16:11.013Z,74.70
2019-02-07T23:18:39.088Z,74.00
2019-02-07T23:21:07.374Z,73.80
2019-02-07T23:23:36.115Z,73.70
2019-02-07T23:26:06.217Z,73.40
2019-02-07T23:28:34.266Z,73.20
2019-02-07T23:31:02.717Z,73.40
2019-02-07T23:33:30.799Z,72.90
2019-02-07T23:35:59.424Z,72.60
2019-02-07T23:38:27.500Z,71.60
2019-02-07T23:40:55.673Z,72.20
2019-02-07T23:43:23.649Z,72.30
2019-02-07T23:45:52.002Z,72.10
2019-02-07T23:48:20.429Z,71.50
2019-02-07T23:50:48.394Z,72.20
2019-02-07T23:53:16.416Z,72.10
2019-02-07T23:55:44.540Z,72.10
2019-02-07T23:58:12.588Z,72.10
